sensor_id;sensor_type;location;lat;lon;timestamp;temperature;humidity
20442;DHT22;10380;52.102;20.614;2023-07-13T00:01:53;19.00;99.90
20442;DHT22;10380;52.102;20.614;2023-07-13T00:04:22;19.00;99.90
20442;DHT22;10380;52.102;20.614;2023-07-13T00:06:52;19.00;99.90
20442;DHT22;10380;52.102;20.614;2023-07-13T00:09:21;18.90;99.90
20442;DHT22;10380;52.102;20.614;2023-07-13T00:11:54;18.90;99.90
20442;DHT22;10380;52.102;20.614;2023-07-13T00:14:21;18.90;99.90
20442;DHT22;10380;52.102;20.614;2023-07-13T00:16:48;18.90;99.90
20442;DHT22;10380;52.102;20.614;2023-07-13T00:19:16;18.90;99.90
20442;DHT22;10380;52.102;20.614;2023-07-13T00:21:43;18.90;99.90
20442;DHT22;10380;52.102;20.614;2023-07-13T00:24:12;18.90;99.90
20442;DHT22;10380;52.102;20.614;2023-07-13T00:26:43;18.90;99.90
20442;DHT22;10380;52.102;20.614;2023-07-13T00:29:13;18.90;99.90
20442;DHT22;10380;52.102;20.614;2023-07-13T00:31:40;18.90;99.90
20442;DHT22;10380;52.102;20.614;2023-07-13T00:34:07;18.90;99.90
20442;DHT22;10380;52.102;20.614;2023-07-13T00:36:34;18.90;99.90
20442;DHT22;10380;52.102;20.614;2023-07-13T00:39:02;18.90;99.90
20442;DHT22;10380;52.102;20.614;2023-07-13T00:41:31;18.90;99.90
20442;DHT22;10380;52.102;20.614;2023-07-13T00:43:58;18.90;99.90
20442;DHT22;10380;52.102;20.614;2023-07-13T00:46:29;18.90;99.90
20442;DHT22;10380;52.102;20.614;2023-07-13T00:49:01;19.00;99.90
20442;DHT22;10380;52.102;20.614;2023-07-13T00:51:32;19.00;99.90
20442;DHT22;10380;52.102;20.614;2023-07-13T00:54:11;19.10;99.90
20442;DHT22;10380;52.102;20.614;2023-07-13T00:56:41;19.10;99.90
20442;DHT22;10380;52.102;20.614;2023-07-13T00:59:11;19.10;99.90
20442;DHT22;10380;52.102;20.614;2023-07-13T01:01:38;19.10;99.90
20442;DHT22;10380;52.102;20.614;2023-07-13T01:04:06;19.10;99.90
20442;DHT22;10380;52.102;20.614;2023-07-13T01:06:36;19.10;99.90
20442;DHT22;10380;52.102;20.614;2023-07-13T01:09:05;19.10;99.90
20442;DHT22;10380;52.102;20.614;2023-07-13T01:11:33;19.00;99.90
20442;DHT22;10380;52.102;20.614;2023-07-13T01:14:02;19.00;99.90
20442;DHT22;10380;52.102;20.614;2023-07-13T01:16:32;19.00;99.90
20442;DHT22;10380;52.102;20.614;2023-07-13T01:19:00;19.00;99.90
20442;DHT22;10380;52.102;20.614;2023-07-13T01:21:32;19.00;99.90
20442;DHT22;10380;52.102;20.614;2023-07-13T01:24:00;18.90;99.90
20442;DHT22;10380;52.102;20.614;2023-07-13T01:26:27;18.90;99.90
20442;DHT22;10380;52.102;20.614;2023-07-13T01:28:54;18.90;99.90
20442;DHT22;10380;52.102;20.614;2023-07-13T01:31:23;18.90;99.90
20442;DHT22;10380;52.102;20.614;2023-07-13T01:33:51;18.90;99.90
20442;DHT22;10380;52.102;20.614;2023-07-13T01:36:18;18.90;99.90
20442;DHT22;10380;52.102;20.614;2023-07-13T01:38:48;18.90;99.90
20442;DHT22;10380;52.102;20.614;2023-07-13T01:41:14;18.90;99.90
20442;DHT22;10380;52.102;20.614;2023-07-13T01:43:41;18.90;99.90
20442;DHT22;10380;52.102;20.614;2023-07-13T01:46:08;18.90;99.90
20442;DHT22;10380;52.102;20.614;2023-07-13T01:48:49;19.00;99.90
20442;DHT22;10380;52.102;20.614;2023-07-13T01:51:17;19.00;99.90
20442;DHT22;10380;52.102;20.614;2023-07-13T01:53:44;19.00;99.90
20442;DHT22;10380;52.102;20.614;2023-07-13T01:56:11;19.00;99.90
20442;DHT22;10380;52.102;20.614;2023-07-13T01:58:39;19.00;99.90
20442;DHT22;10380;52.102;20.614;2023-07-13T02:01:06;19.00;99.90
20442;DHT22;10380;52.102;20.614;2023-07-13T02:03:33;18.90;99.90
20442;DHT22;10380;52.102;20.614;2023-07-13T02:06:00;18.90;99.90
20442;DHT22;10380;52.102;20.614;2023-07-13T02:08:27;18.90;99.90
20442;DHT22;10380;52.102;20.614;2023-07-13T02:10:54;18.90;99.90
20442;DHT22;10380;52.102;20.614;2023-07-13T02:13:21;18.90;99.90
20442;DHT22;10380;52.102;20.614;2023-07-13T02:15:51;18.90;99.90
20442;DHT22;10380;52.102;20.614;2023-07-13T02:18:18;18.90;99.90
20442;DHT22;10380;52.102;20.614;2023-07-13T02:20:45;18.90;99.90
20442;DHT22;10380;52.102;20.614;2023-07-13T02:23:12;18.90;99.90
20442;DHT22;10380;52.102;20.614;2023-07-13T02:25:39;18.90;99.90
20442;DHT22;10380;52.102;20.614;2023-07-13T02:28:06;18.90;99.90
20442;DHT22;10380;52.102;20.614;2023-07-13T02:30:35;18.90;99.90
20442;DHT22;10380;52.102;20.614;2023-07-13T02:33:02;18.90;99.90
20442;DHT22;10380;52.102;20.614;2023-07-13T02:35:29;18.90;99.90
20442;DHT22;10380;52.102;20.614;2023-07-13T02:37:56;19.00;99.90
20442;DHT22;10380;52.102;20.614;2023-07-13T02:40:23;19.00;99.90
20442;DHT22;10380;52.102;20.614;2023-07-13T02:42:50;19.00;99.90
20442;DHT22;10380;52.102;20.614;2023-07-13T02:45:17;19.00;99.90
20442;DHT22;10380;52.102;20.614;2023-07-13T02:47:44;19.00;99.90
20442;DHT22;10380;52.102;20.614;2023-07-13T02:50:10;19.00;99.90
20442;DHT22;10380;52.102;20.614;2023-07-13T02:52:37;19.00;99.90
20442;DHT22;10380;52.102;20.614;2023-07-13T02:55:05;19.00;99.90
20442;DHT22;10380;52.102;20.614;2023-07-13T02:57:32;19.00;99.90
20442;DHT22;10380;52.102;20.614;2023-07-13T03:00:00;19.00;99.90
20442;DHT22;10380;52.102;20.614;2023-07-13T03:02:27;18.90;99.90
20442;DHT22;10380;52.102;20.614;2023-07-13T03:04:55;18.90;99.90
20442;DHT22;10380;52.102;20.614;2023-07-13T03:07:23;18.90;99.90
20442;DHT22;10380;52.102;20.614;2023-07-13T03:09:56;18.90;99.90
20442;DHT22;10380;52.102;20.614;2023-07-13T03:12:24;18.90;99.90
20442;DHT22;10380;52.102;20.614;2023-07-13T03:14:51;18.90;99.90
20442;DHT22;10380;52.102;20.614;2023-07-13T03:17:18;18.90;99.90
20442;DHT22;10380;52.102;20.614;2023-07-13T03:19:45;18.90;99.90
20442;DHT22;10380;52.102;20.614;2023-07-13T03:22:17;18.80;99.90
20442;DHT22;10380;52.102;20.614;2023-07-13T03:24:45;18.80;99.90
20442;DHT22;10380;52.102;20.614;2023-07-13T03:27:12;18.80;99.90
20442;DHT22;10380;52.102;20.614;2023-07-13T03:29:40;18.80;99.90
20442;DHT22;10380;52.102;20.614;2023-07-13T03:32:07;18.80;99.90
20442;DHT22;10380;52.102;20.614;2023-07-13T03:34:34;18.80;99.90
20442;DHT22;10380;52.102;20.614;2023-07-13T03:37:02;18.80;99.90
20442;DHT22;10380;52.102;20.614;2023-07-13T03:39:29;18.80;99.90
20442;DHT22;10380;52.102;20.614;2023-07-13T03:41:56;18.90;99.90
20442;DHT22;10380;52.102;20.614;2023-07-13T03:44:23;18.90;99.90
20442;DHT22;10380;52.102;20.614;2023-07-13T03:46:50;18.90;99.90
20442;DHT22;10380;52.102;20.614;2023-07-13T03:49:17;18.90;99.90
20442;DHT22;10380;52.102;20.614;2023-07-13T03:51:44;19.00;99.90
20442;DHT22;10380;52.102;20.614;2023-07-13T03:54:11;19.00;99.90
20442;DHT22;10380;52.102;20.614;2023-07-13T03:56:38;19.10;99.90
20442;DHT22;10380;52.102;20.614;2023-07-13T03:59:05;19.10;99.90
20442;DHT22;10380;52.102;20.614;2023-07-13T04:01:32;19.20;99.90
20442;DHT22;10380;52.102;20.614;2023-07-13T04:03:59;19.30;99.90
20442;DHT22;10380;52.102;20.614;2023-07-13T04:06:30;19.40;99.90
20442;DHT22;10380;52.102;20.614;2023-07-13T04:08:59;19.50;99.90
20442;DHT22;10380;52.102;20.614;2023-07-13T04:11:28;19.60;99.90
20442;DHT22;10380;52.102;20.614;2023-07-13T04:13:56;19.70;99.90
20442;DHT22;10380;52.102;20.614;2023-07-13T04:16:23;19.80;99.90
20442;DHT22;10380;52.102;20.614;2023-07-13T04:18:50;19.90;99.90
20442;DHT22;10380;52.102;20.614;2023-07-13T04:21:21;20.00;99.90
20442;DHT22;10380;52.102;20.614;2023-07-13T04:23:48;20.00;99.90
20442;DHT22;10380;52.102;20.614;2023-07-13T04:26:16;20.10;99.90
20442;DHT22;10380;52.102;20.614;2023-07-13T04:28:42;20.20;99.90
20442;DHT22;10380;52.102;20.614;2023-07-13T04:31:09;20.30;99.90
20442;DHT22;10380;52.102;20.614;2023-07-13T04:33:36;20.30;99.90
20442;DHT22;10380;52.102;20.614;2023-07-13T04:36:04;20.40;99.90
20442;DHT22;10380;52.102;20.614;2023-07-13T04:38:32;20.40;99.90
20442;DHT22;10380;52.102;20.614;2023-07-13T04:41:01;20.50;99.90
20442;DHT22;10380;52.102;20.614;2023-07-13T04:43:29;20.50;99.90
20442;DHT22;10380;52.102;20.614;2023-07-13T04:46:02;20.50;99.90
20442;DHT22;10380;52.102;20.614;2023-07-13T04:48:29;20.50;99.90
20442;DHT22;10380;52.102;20.614;2023-07-13T04:50:57;20.50;99.90
20442;DHT22;10380;52.102;20.614;2023-07-13T04:53:25;20.50;99.90
20442;DHT22;10380;52.102;20.614;2023-07-13T04:55:52;20.60;99.90
20442;DHT22;10380;52.102;20.614;2023-07-13T04:58:21;20.60;99.90
20442;DHT22;10380;52.102;20.614;2023-07-13T05:00:49;20.70;99.90
20442;DHT22;10380;52.102;20.614;2023-07-13T05:03:16;20.80;99.90
20442;DHT22;10380;52.102;20.614;2023-07-13T05:05:55;20.90;99.90
20442;DHT22;10380;52.102;20.614;2023-07-13T05:08:22;21.00;99.90
20442;DHT22;10380;52.102;20.614;2023-07-13T05:10:50;21.10;99.90
20442;DHT22;10380;52.102;20.614;2023-07-13T05:13:17;21.20;99.90
20442;DHT22;10380;52.102;20.614;2023-07-13T05:15:45;21.20;99.90
20442;DHT22;10380;52.102;20.614;2023-07-13T05:18:12;21.30;99.90
20442;DHT22;10380;52.102;20.614;2023-07-13T05:20:42;21.40;99.90
20442;DHT22;10380;52.102;20.614;2023-07-13T05:23:09;21.50;99.90
20442;DHT22;10380;52.102;20.614;2023-07-13T05:25:36;21.60;99.90
20442;DHT22;10380;52.102;20.614;2023-07-13T05:28:02;21.80;99.90
20442;DHT22;10380;52.102;20.614;2023-07-13T05:30:29;21.90;99.90
20442;DHT22;10380;52.102;20.614;2023-07-13T05:32:56;22.00;99.90
20442;DHT22;10380;52.102;20.614;2023-07-13T05:35:23;22.00;99.90
20442;DHT22;10380;52.102;20.614;2023-07-13T05:37:51;22.10;99.90
20442;DHT22;10380;52.102;20.614;2023-07-13T05:40:18;22.20;99.90
20442;DHT22;10380;52.102;20.614;2023-07-13T05:42:45;22.30;99.90
20442;DHT22;10380;52.102;20.614;2023-07-13T05:45:12;22.30;99.90
20442;DHT22;10380;52.102;20.614;2023-07-13T05:47:40;22.30;99.90
20442;DHT22;10380;52.102;20.614;2023-07-13T05:50:07;22.40;99.90
20442;DHT22;10380;52.102;20.614;2023-07-13T05:52:34;22.50;99.90
20442;DHT22;10380;52.102;20.614;2023-07-13T05:55:01;22.60;99.90
20442;DHT22;10380;52.102;20.614;2023-07-13T05:57:27;22.60;99.90
20442;DHT22;10380;52.102;20.614;2023-07-13T05:59:54;22.70;99.90
20442;DHT22;10380;52.102;20.614;2023-07-13T06:02:21;22.70;99.90
20442;DHT22;10380;52.102;20.614;2023-07-13T06:04:48;22.80;99.90
20442;DHT22;10380;52.102;20.614;2023-07-13T06:07:18;22.80;99.90
20442;DHT22;10380;52.102;20.614;2023-07-13T06:09:45;22.80;99.90
20442;DHT22;10380;52.102;20.614;2023-07-13T06:12:12;22.80;99.90
20442;DHT22;10380;52.102;20.614;2023-07-13T06:14:38;22.80;99.90
20442;DHT22;10380;52.102;20.614;2023-07-13T06:17:05;22.80;99.90
20442;DHT22;10380;52.102;20.614;2023-07-13T06:19:32;22.80;99.90
20442;DHT22;10380;52.102;20.614;2023-07-13T06:21:59;22.80;99.90
20442;DHT22;10380;52.102;20.614;2023-07-13T06:24:26;22.80;99.90
20442;DHT22;10380;52.102;20.614;2023-07-13T06:26:53;22.80;99.90
20442;DHT22;10380;52.102;20.614;2023-07-13T06:29:20;22.80;99.90
20442;DHT22;10380;52.102;20.614;2023-07-13T06:31:46;22.90;99.90
20442;DHT22;10380;52.102;20.614;2023-07-13T06:34:13;23.00;99.90
20442;DHT22;10380;52.102;20.614;2023-07-13T06:36:40;23.00;99.90
20442;DHT22;10380;52.102;20.614;2023-07-13T06:39:08;23.10;99.90
20442;DHT22;10380;52.102;20.614;2023-07-13T06:41:34;23.20;99.90
20442;DHT22;10380;52.102;20.614;2023-07-13T06:44:01;23.30;99.90
20442;DHT22;10380;52.102;20.614;2023-07-13T06:46:29;23.40;99.90
20442;DHT22;10380;52.102;20.614;2023-07-13T06:48:56;23.50;99.90
20442;DHT22;10380;52.102;20.614;2023-07-13T06:51:23;23.50;99.90
20442;DHT22;10380;52.102;20.614;2023-07-13T06:53:50;23.60;99.90
20442;DHT22;10380;52.102;20.614;2023-07-13T06:56:16;23.60;99.90
20442;DHT22;10380;52.102;20.614;2023-07-13T06:58:43;23.70;99.90
20442;DHT22;10380;52.102;20.614;2023-07-13T07:01:10;23.70;99.90
20442;DHT22;10380;52.102;20.614;2023-07-13T07:03:38;23.80;99.90
20442;DHT22;10380;52.102;20.614;2023-07-13T07:06:15;23.80;99.90
20442;DHT22;10380;52.102;20.614;2023-07-13T07:08:43;23.80;99.90
20442;DHT22;10380;52.102;20.614;2023-07-13T07:11:13;23.90;99.90
20442;DHT22;10380;52.102;20.614;2023-07-13T07:13:42;23.90;99.90
20442;DHT22;10380;52.102;20.614;2023-07-13T07:16:09;24.00;99.90
20442;DHT22;10380;52.102;20.614;2023-07-13T07:18:36;24.00;99.90
20442;DHT22;10380;52.102;20.614;2023-07-13T07:21:03;24.10;99.90
20442;DHT22;10380;52.102;20.614;2023-07-13T07:23:30;24.10;99.90
20442;DHT22;10380;52.102;20.614;2023-07-13T07:25:57;24.10;99.90
20442;DHT22;10380;52.102;20.614;2023-07-13T07:28:24;24.20;99.90
20442;DHT22;10380;52.102;20.614;2023-07-13T07:30:58;24.30;99.90
20442;DHT22;10380;52.102;20.614;2023-07-13T07:33:27;24.30;99.90
20442;DHT22;10380;52.102;20.614;2023-07-13T07:35:54;24.40;99.90
20442;DHT22;10380;52.102;20.614;2023-07-13T07:38:24;24.50;99.90
20442;DHT22;10380;52.102;20.614;2023-07-13T07:40:52;24.60;99.90
20442;DHT22;10380;52.102;20.614;2023-07-13T07:43:22;24.60;99.90
20442;DHT22;10380;52.102;20.614;2023-07-13T07:45:49;24.80;99.90
20442;DHT22;10380;52.102;20.614;2023-07-13T07:48:16;24.90;99.90
20442;DHT22;10380;52.102;20.614;2023-07-13T07:50:43;25.10;99.90
20442;DHT22;10380;52.102;20.614;2023-07-13T07:53:10;25.20;99.90
20442;DHT22;10380;52.102;20.614;2023-07-13T07:55:37;25.40;99.90
20442;DHT22;10380;52.102;20.614;2023-07-13T07:58:07;25.40;99.90
20442;DHT22;10380;52.102;20.614;2023-07-13T08:00:54;25.40;99.90
20442;DHT22;10380;52.102;20.614;2023-07-13T08:03:24;25.50;99.90
20442;DHT22;10380;52.102;20.614;2023-07-13T08:05:54;25.60;99.90
20442;DHT22;10380;52.102;20.614;2023-07-13T08:08:24;25.60;99.90
20442;DHT22;10380;52.102;20.614;2023-07-13T08:10:51;25.70;99.90
20442;DHT22;10380;52.102;20.614;2023-07-13T08:13:22;25.70;99.90
20442;DHT22;10380;52.102;20.614;2023-07-13T08:15:49;25.90;99.90
20442;DHT22;10380;52.102;20.614;2023-07-13T08:18:16;26.00;99.90
20442;DHT22;10380;52.102;20.614;2023-07-13T08:20:43;26.00;99.90
20442;DHT22;10380;52.102;20.614;2023-07-13T08:23:11;26.20;99.90
20442;DHT22;10380;52.102;20.614;2023-07-13T08:25:38;26.30;99.90
20442;DHT22;10380;52.102;20.614;2023-07-13T08:28:05;26.40;99.90
20442;DHT22;10380;52.102;20.614;2023-07-13T08:30:31;26.40;99.90
20442;DHT22;10380;52.102;20.614;2023-07-13T08:32:58;26.40;99.90
20442;DHT22;10380;52.102;20.614;2023-07-13T08:35:25;26.50;99.90
20442;DHT22;10380;52.102;20.614;2023-07-13T08:37:52;26.50;99.90
20442;DHT22;10380;52.102;20.614;2023-07-13T08:40:24;26.60;99.90
20442;DHT22;10380;52.102;20.614;2023-07-13T08:42:55;26.70;99.90
20442;DHT22;10380;52.102;20.614;2023-07-13T08:45:45;26.80;99.90
20442;DHT22;10380;52.102;20.614;2023-07-13T08:48:22;27.00;99.90
20442;DHT22;10380;52.102;20.614;2023-07-13T08:50:52;27.20;99.90
20442;DHT22;10380;52.102;20.614;2023-07-13T08:53:35;27.30;99.90
20442;DHT22;10380;52.102;20.614;2023-07-13T08:56:07;27.50;99.90
20442;DHT22;10380;52.102;20.614;2023-07-13T08:58:36;27.60;99.90
20442;DHT22;10380;52.102;20.614;2023-07-13T09:01:20;27.60;99.90
20442;DHT22;10380;52.102;20.614;2023-07-13T09:04:08;27.60;99.90
20442;DHT22;10380;52.102;20.614;2023-07-13T09:15:02;27.60;99.90
20442;DHT22;10380;52.102;20.614;2023-07-13T09:17:35;27.70;99.90
20442;DHT22;10380;52.102;20.614;2023-07-13T09:20:25;27.70;99.90
20442;DHT22;10380;52.102;20.614;2023-07-13T09:22:54;27.80;99.90
20442;DHT22;10380;52.102;20.614;2023-07-13T09:25:31;27.90;99.90
20442;DHT22;10380;52.102;20.614;2023-07-13T09:28:14;28.00;99.90
20442;DHT22;10380;52.102;20.614;2023-07-13T09:31:03;28.10;99.90
20442;DHT22;10380;52.102;20.614;2023-07-13T09:33:31;28.20;99.90
20442;DHT22;10380;52.102;20.614;2023-07-13T09:35:58;28.20;99.90
20442;DHT22;10380;52.102;20.614;2023-07-13T09:38:28;28.30;99.90
20442;DHT22;10380;52.102;20.614;2023-07-13T09:43:36;28.30;99.90
20442;DHT22;10380;52.102;20.614;2023-07-13T09:46:03;28.20;99.90
20442;DHT22;10380;52.102;20.614;2023-07-13T09:48:35;28.00;99.90
20442;DHT22;10380;52.102;20.614;2023-07-13T09:51:13;27.80;99.90
20442;DHT22;10380;52.102;20.614;2023-07-13T09:53:42;27.50;99.90
20442;DHT22;10380;52.102;20.614;2023-07-13T09:56:28;27.30;99.90
20442;DHT22;10380;52.102;20.614;2023-07-13T09:58:59;27.10;99.90
20442;DHT22;10380;52.102;20.614;2023-07-13T10:01:37;26.90;99.90
20442;DHT22;10380;52.102;20.614;2023-07-13T10:04:13;26.70;99.90
20442;DHT22;10380;52.102;20.614;2023-07-13T10:06:40;26.60;99.90
20442;DHT22;10380;52.102;20.614;2023-07-13T10:09:09;26.40;99.90
20442;DHT22;10380;52.102;20.614;2023-07-13T10:11:39;26.30;99.90
20442;DHT22;10380;52.102;20.614;2023-07-13T10:14:17;26.10;99.90
20442;DHT22;10380;52.102;20.614;2023-07-13T10:16:46;25.80;99.90
20442;DHT22;10380;52.102;20.614;2023-07-13T10:19:19;25.60;99.90
20442;DHT22;10380;52.102;20.614;2023-07-13T10:21:57;25.30;99.90
20442;DHT22;10380;52.102;20.614;2023-07-13T10:24:29;25.10;99.90
20442;DHT22;10380;52.102;20.614;2023-07-13T10:27:05;25.00;99.90
20442;DHT22;10380;52.102;20.614;2023-07-13T10:29:39;25.00;99.90
20442;DHT22;10380;52.102;20.614;2023-07-13T10:32:12;25.00;99.90
20442;DHT22;10380;52.102;20.614;2023-07-13T10:34:41;25.10;99.90
20442;DHT22;10380;52.102;20.614;2023-07-13T10:37:21;25.10;99.90
20442;DHT22;10380;52.102;20.614;2023-07-13T10:39:50;25.00;99.90
20442;DHT22;10380;52.102;20.614;2023-07-13T10:42:29;24.90;99.90
20442;DHT22;10380;52.102;20.614;2023-07-13T10:44:56;24.60;99.90
20442;DHT22;10380;52.102;20.614;2023-07-13T10:47:24;24.30;99.90
20442;DHT22;10380;52.102;20.614;2023-07-13T10:49:56;24.10;99.90
20442;DHT22;10380;52.102;20.614;2023-07-13T10:52:42;23.90;99.90
20442;DHT22;10380;52.102;20.614;2023-07-13T10:58:11;23.80;99.90
20442;DHT22;10380;52.102;20.614;2023-07-13T11:03:56;23.60;99.90
20442;DHT22;10380;52.102;20.614;2023-07-13T11:06:40;23.50;99.90
20442;DHT22;10380;52.102;20.614;2023-07-13T11:09:30;23.30;99.90
20442;DHT22;10380;52.102;20.614;2023-07-13T11:15:02;22.60;99.90
20442;DHT22;10380;52.102;20.614;2023-07-13T11:17:48;22.30;99.90
20442;DHT22;10380;52.102;20.614;2023-07-13T11:22:51;20.30;99.90
20442;DHT22;10380;52.102;20.614;2023-07-13T11:25:32;19.70;99.90
20442;DHT22;10380;52.102;20.614;2023-07-13T11:36:17;18.60;99.90
20442;DHT22;10380;52.102;20.614;2023-07-13T11:38:59;18.50;99.90
20442;DHT22;10380;52.102;20.614;2023-07-13T11:44:06;18.60;99.90
20442;DHT22;10380;52.102;20.614;2023-07-13T11:46:33;18.60;99.90
20442;DHT22;10380;52.102;20.614;2023-07-13T11:49:00;18.70;99.90
20442;DHT22;10380;52.102;20.614;2023-07-13T11:51:29;18.80;99.90
20442;DHT22;10380;52.102;20.614;2023-07-13T11:54:04;19.00;99.90
20442;DHT22;10380;52.102;20.614;2023-07-13T11:56:31;19.00;99.90
20442;DHT22;10380;52.102;20.614;2023-07-13T11:59:07;19.20;99.90
20442;DHT22;10380;52.102;20.614;2023-07-13T12:01:46;19.30;99.90
20442;DHT22;10380;52.102;20.614;2023-07-13T12:04:22;19.50;99.90
20442;DHT22;10380;52.102;20.614;2023-07-13T12:07:05;19.60;99.90
20442;DHT22;10380;52.102;20.614;2023-07-13T12:09:33;19.80;99.90
20442;DHT22;10380;52.102;20.614;2023-07-13T12:12:03;20.00;99.90
20442;DHT22;10380;52.102;20.614;2023-07-13T12:14:33;20.20;99.90
20442;DHT22;10380;52.102;20.614;2023-07-13T12:17:00;20.40;99.90
20442;DHT22;10380;52.102;20.614;2023-07-13T12:19:28;20.50;99.90
20442;DHT22;10380;52.102;20.614;2023-07-13T12:21:58;20.80;99.90
20442;DHT22;10380;52.102;20.614;2023-07-13T12:24:26;20.90;99.90
20442;DHT22;10380;52.102;20.614;2023-07-13T12:27:02;21.20;99.90
20442;DHT22;10380;52.102;20.614;2023-07-13T12:29:32;21.40;99.90
20442;DHT22;10380;52.102;20.614;2023-07-13T12:31:59;21.60;99.90
20442;DHT22;10380;52.102;20.614;2023-07-13T12:34:26;21.80;99.90
20442;DHT22;10380;52.102;20.614;2023-07-13T12:36:56;21.90;99.90
20442;DHT22;10380;52.102;20.614;2023-07-13T12:39:26;22.00;99.90
20442;DHT22;10380;52.102;20.614;2023-07-13T12:42:19;22.00;99.90
20442;DHT22;10380;52.102;20.614;2023-07-13T12:45:03;22.00;99.90
20442;DHT22;10380;52.102;20.614;2023-07-13T12:47:40;22.00;99.90
20442;DHT22;10380;52.102;20.614;2023-07-13T12:50:18;22.10;99.90
20442;DHT22;10380;52.102;20.614;2023-07-13T12:52:54;22.00;99.90
20442;DHT22;10380;52.102;20.614;2023-07-13T12:55:21;22.10;99.90
20442;DHT22;10380;52.102;20.614;2023-07-13T12:57:56;22.10;99.90
20442;DHT22;10380;52.102;20.614;2023-07-13T13:00:29;22.10;99.90
20442;DHT22;10380;52.102;20.614;2023-07-13T13:03:06;22.10;99.90
20442;DHT22;10380;52.102;20.614;2023-07-13T13:06:06;22.10;99.90
20442;DHT22;10380;52.102;20.614;2023-07-13T13:08:51;22.00;99.90
20442;DHT22;10380;52.102;20.614;2023-07-13T13:11:19;22.00;99.90
20442;DHT22;10380;52.102;20.614;2023-07-13T13:13:46;22.00;99.90
20442;DHT22;10380;52.102;20.614;2023-07-13T13:16:16;22.00;99.90
20442;DHT22;10380;52.102;20.614;2023-07-13T13:18:44;22.00;99.90
20442;DHT22;10380;52.102;20.614;2023-07-13T13:21:11;22.00;99.90
20442;DHT22;10380;52.102;20.614;2023-07-13T13:23:38;22.00;99.90
20442;DHT22;10380;52.102;20.614;2023-07-13T13:26:12;22.10;99.90
20442;DHT22;10380;52.102;20.614;2023-07-13T13:28:39;22.10;99.90
20442;DHT22;10380;52.102;20.614;2023-07-13T13:31:08;22.20;99.90
20442;DHT22;10380;52.102;20.614;2023-07-13T13:33:43;22.20;99.90
20442;DHT22;10380;52.102;20.614;2023-07-13T13:36:22;22.20;99.90
20442;DHT22;10380;52.102;20.614;2023-07-13T13:38:50;22.20;99.90
20442;DHT22;10380;52.102;20.614;2023-07-13T13:41:17;22.20;99.90
20442;DHT22;10380;52.102;20.614;2023-07-13T13:43:44;22.20;99.90
20442;DHT22;10380;52.102;20.614;2023-07-13T13:46:23;22.20;99.90
20442;DHT22;10380;52.102;20.614;2023-07-13T13:48:52;22.20;99.90
20442;DHT22;10380;52.102;20.614;2023-07-13T13:51:20;22.20;99.90
20442;DHT22;10380;52.102;20.614;2023-07-13T13:53:48;22.20;99.90
20442;DHT22;10380;52.102;20.614;2023-07-13T13:56:16;22.30;99.90
20442;DHT22;10380;52.102;20.614;2023-07-13T13:58:44;22.30;99.90
20442;DHT22;10380;52.102;20.614;2023-07-13T14:01:17;22.40;99.90
20442;DHT22;10380;52.102;20.614;2023-07-13T14:03:45;22.40;99.90
20442;DHT22;10380;52.102;20.614;2023-07-13T14:06:13;22.50;99.90
20442;DHT22;10380;52.102;20.614;2023-07-13T14:08:40;22.50;99.90
20442;DHT22;10380;52.102;20.614;2023-07-13T14:11:16;22.60;99.90
20442;DHT22;10380;52.102;20.614;2023-07-13T14:13:47;22.70;99.90
20442;DHT22;10380;52.102;20.614;2023-07-13T14:16:18;22.70;99.90
20442;DHT22;10380;52.102;20.614;2023-07-13T14:18:47;22.80;99.90
20442;DHT22;10380;52.102;20.614;2023-07-13T14:21:15;22.80;99.90
20442;DHT22;10380;52.102;20.614;2023-07-13T14:23:44;22.80;99.90
20442;DHT22;10380;52.102;20.614;2023-07-13T14:26:17;22.80;99.90
20442;DHT22;10380;52.102;20.614;2023-07-13T14:28:47;22.80;99.90
20442;DHT22;10380;52.102;20.614;2023-07-13T14:31:16;22.80;99.90
20442;DHT22;10380;52.102;20.614;2023-07-13T14:33:45;22.80;99.90
20442;DHT22;10380;52.102;20.614;2023-07-13T14:38:58;22.80;99.90
20442;DHT22;10380;52.102;20.614;2023-07-13T14:41:27;22.70;99.90
20442;DHT22;10380;52.102;20.614;2023-07-13T14:43:54;22.60;99.90
20442;DHT22;10380;52.102;20.614;2023-07-13T14:46:30;22.60;99.90
20442;DHT22;10380;52.102;20.614;2023-07-13T14:49:16;22.50;99.90
20442;DHT22;10380;52.102;20.614;2023-07-13T14:51:48;22.40;99.90
20442;DHT22;10380;52.102;20.614;2023-07-13T14:54:15;22.30;99.90
20442;DHT22;10380;52.102;20.614;2023-07-13T14:56:42;22.30;99.90
20442;DHT22;10380;52.102;20.614;2023-07-13T14:59:09;22.20;99.90
20442;DHT22;10380;52.102;20.614;2023-07-13T15:01:37;22.20;99.90
20442;DHT22;10380;52.102;20.614;2023-07-13T15:04:05;22.20;99.90
20442;DHT22;10380;52.102;20.614;2023-07-13T15:06:53;22.10;99.90
20442;DHT22;10380;52.102;20.614;2023-07-13T15:09:20;22.10;99.90
20442;DHT22;10380;52.102;20.614;2023-07-13T15:11:47;22.10;99.90
20442;DHT22;10380;52.102;20.614;2023-07-13T15:14:14;22.10;99.90
20442;DHT22;10380;52.102;20.614;2023-07-13T15:16:41;22.10;99.90
20442;DHT22;10380;52.102;20.614;2023-07-13T15:19:09;22.10;99.90
20442;DHT22;10380;52.102;20.614;2023-07-13T15:21:38;22.00;99.90
20442;DHT22;10380;52.102;20.614;2023-07-13T15:24:05;22.00;99.90
20442;DHT22;10380;52.102;20.614;2023-07-13T15:26:36;22.00;99.90
20442;DHT22;10380;52.102;20.614;2023-07-13T15:29:03;22.00;99.90
20442;DHT22;10380;52.102;20.614;2023-07-13T15:31:32;22.00;99.90
20442;DHT22;10380;52.102;20.614;2023-07-13T15:33:59;22.00;99.90
20442;DHT22;10380;52.102;20.614;2023-07-13T15:36:27;22.10;99.90
20442;DHT22;10380;52.102;20.614;2023-07-13T15:38:55;22.20;99.90
20442;DHT22;10380;52.102;20.614;2023-07-13T15:41:24;22.20;99.90
20442;DHT22;10380;52.102;20.614;2023-07-13T15:43:54;22.30;99.90
20442;DHT22;10380;52.102;20.614;2023-07-13T15:46:22;22.40;99.90
20442;DHT22;10380;52.102;20.614;2023-07-13T15:48:51;22.40;99.90
20442;DHT22;10380;52.102;20.614;2023-07-13T15:51:29;22.50;99.90
20442;DHT22;10380;52.102;20.614;2023-07-13T15:54:00;22.50;99.90
20442;DHT22;10380;52.102;20.614;2023-07-13T15:56:34;22.50;99.90
20442;DHT22;10380;52.102;20.614;2023-07-13T15:59:02;22.50;99.90
20442;DHT22;10380;52.102;20.614;2023-07-13T16:01:30;22.40;99.90
20442;DHT22;10380;52.102;20.614;2023-07-13T16:03:58;22.40;99.90
20442;DHT22;10380;52.102;20.614;2023-07-13T16:06:31;22.40;99.90
20442;DHT22;10380;52.102;20.614;2023-07-13T16:09:01;22.40;99.90